createdAt,value
2022-11-16T00:03:28.870Z,94813.09
2022-11-16T00:18:30.434Z,94796.84
2022-11-16T00:33:32.001Z,94796.13
2022-11-16T00:48:33.794Z,94790.28
2022-11-16T01:03:35.880Z,94806.03
2022-11-16T01:18:37.722Z,94809.00
2022-11-16T01:33:39.157Z,94815.91
2022-11-16T01:48:43.935Z,94795.25
2022-11-16T02:03:45.997Z,94779.41
2022-11-16T02:18:47.511Z,94753.38
2022-11-16T02:33:50.462Z,94742.63
2022-11-16T02:48:51.882Z,94744.97
2022-11-16T03:03:53.428Z,94736.69
2022-11-16T03:18:54.953Z,94749.53
2022-11-16T03:33:57.604Z,94743.34
2022-11-16T03:48:59.497Z,94749.94
2022-11-16T04:04:04.786Z,94730.88
2022-11-16T04:19:25.485Z,94723.25
2022-11-16T04:34:45.941Z,94741.31
2022-11-16T04:49:47.639Z,94741.38
2022-11-16T05:04:49.225Z,94738.47
2022-11-16T05:20:10.949Z,94740.16
2022-11-16T05:35:20.393Z,94750.06
2022-11-16T05:50:21.946Z,94764.50
2022-11-16T06:05:40.745Z,94773.09
2022-11-16T06:20:54.850Z,94757.59
2022-11-16T06:35:57.948Z,94770.88
2022-11-16T06:50:59.825Z,94780.44
2022-11-16T07:06:01.679Z,94789.34
2022-11-16T07:21:03.381Z,94818.06
2022-11-16T07:36:04.887Z,94827.16
2022-11-16T07:51:07.820Z,94840.09
2022-11-16T08:06:15.506Z,94850.56
2022-11-16T08:21:17.923Z,94855.38
2022-11-16T08:36:20.324Z,94864.78
2022-11-16T08:51:23.598Z,94867.00
2022-11-16T09:06:32.228Z,94881.69
2022-11-16T09:21:36.079Z,94885.13
2022-11-16T09:36:37.518Z,94894.19
2022-11-16T09:51:38.904Z,94895.53
2022-11-16T10:06:40.263Z,94902.78
2022-11-16T10:21:42.092Z,94894.94
2022-11-16T10:36:43.491Z,94884.94
2022-11-16T10:51:44.868Z,94884.41
2022-11-16T11:06:46.264Z,94866.34
2022-11-16T11:21:47.833Z,94854.38
2022-11-16T11:36:49.275Z,94855.56
2022-11-16T11:51:50.643Z,94849.84
2022-11-16T12:06:52.062Z,94843.31
2022-11-16T12:21:53.412Z,94835.16
2022-11-16T12:36:57.220Z,94827.78
2022-11-16T12:51:58.792Z,94812.34
2022-11-16T13:07:00.234Z,94802.09
2022-11-16T13:22:03.507Z,94805.34
2022-11-16T13:37:05.032Z,94794.00
2022-11-16T13:52:22.658Z,94783.19
2022-11-16T14:07:25.420Z,94768.72
2022-11-16T14:22:29.092Z,94762.28
2022-11-16T14:37:30.535Z,94760.84
2022-11-16T14:52:31.927Z,94745.16
2022-11-16T15:07:33.330Z,94740.56
2022-11-16T15:22:34.780Z,94719.56
2022-11-16T15:37:36.193Z,94717.88
2022-11-16T15:52:40.569Z,94723.31
2022-11-16T16:07:41.948Z,94711.16
2022-11-16T16:22:44.506Z,94710.78
2022-11-16T16:37:46.710Z,94703.19
2022-11-16T16:52:48.634Z,94704.28
2022-11-16T17:07:50.026Z,94695.25
2022-11-16T17:22:52.767Z,94684.16
2022-11-16T17:37:54.533Z,94671.28
2022-11-16T17:52:58.255Z,94651.94
2022-11-16T18:07:59.881Z,94659.41
2022-11-16T18:23:01.267Z,94649.25
2022-11-16T18:38:02.738Z,94634.44
2022-11-16T18:53:05.035Z,94615.47
2022-11-16T19:08:06.558Z,94571.50
2022-11-16T19:23:08.116Z,94566.38
2022-11-16T19:38:09.594Z,94559.94
2022-11-16T19:53:11.055Z,94561.34
2022-11-16T20:08:12.482Z,94561.59
2022-11-16T20:23:14.434Z,94559.59
2022-11-16T20:38:15.863Z,94559.13
2022-11-16T20:53:17.808Z,94522.75
2022-11-16T21:08:22.307Z,94516.31
2022-11-16T21:23:23.785Z,94494.44
2022-11-16T21:38:28.156Z,94485.50
2022-11-16T21:53:29.568Z,94485.69
2022-11-16T22:08:31.002Z,94465.53
2022-11-16T22:23:32.479Z,94452.59
2022-11-16T22:38:34.030Z,94456.81
2022-11-16T22:53:35.747Z,94463.44
2022-11-16T23:08:37.756Z,94459.00
2022-11-16T23:23:57.643Z,94432.84
2022-11-16T23:38:59.055Z,94417.25
2022-11-16T23:54:00.532Z,94398.56
